Time;durP1;ratioP1;P1;durP2;ratioP2;P2;SDS_P1;SDS_P2;PMS_P1;PMS_P2;Temp;Humidity;BMP_temperature;BMP_pressure;BME280_temperature;BME280_humidity;BME280_pressure;Samples;Min_cycle;Max_cycle;Signal;HPM_P1;HPM_P2
2021/12/25 07:58:58;;;;;;;1.35;0.82;;;;;;;;;;5101168;27;1553177;-76
2021/12/25 08:01:24;;;;;;;3.45;0.82;;;;;;;;;;5132522;27;20119;-76
2021/12/25 08:03:49;;;;;;;8.30;1.15;;;;;;;;;;5131553;28;20033;-78
2021/12/25 08:06:15;;;;;;;10.05;1.40;;;;;;;;;;5114906;28;20063;-78
2021/12/25 08:08:42;;;;;;;7.00;1.10;;;;;;;;;;5112624;28;20027;-80
2021/12/25 08:11:07;;;;;;;3.03;1.00;;;;;;;;;;5093098;28;20020;-79
2021/12/25 08:13:33;;;;;;;3.83;1.17;;;;;;;;;;5112004;28;20035;-78
2021/12/25 08:15:58;;;;;;;9.07;1.15;;;;;;;;;;5109980;28;20525;-80
2021/12/25 08:18:23;;;;;;;5.20;1.10;;;;;;;;;;5110444;28;20101;-79
2021/12/25 08:20:49;;;;;;;4.05;0.90;;;;;;;;;;5111866;28;20054;-79
2021/12/25 08:23:14;;;;;;;4.40;0.93;;;;;;;;;;5111026;28;20053;-78
2021/12/25 08:25:40;;;;;;;8.63;0.93;;;;;;;;;;5075831;28;20042;-78
2021/12/25 08:28:05;;;;;;;1.98;0.57;;;;;;;;;;5110383;28;20020;-79
2021/12/25 08:30:31;;;;;;;1.60;0.77;;;;;;;;;;5092923;28;20043;-81
2021/12/25 08:32:58;;;;;;;6.72;0.85;;;;;;;;;;5109986;28;20015;-78
2021/12/25 08:35:26;;;;;;;1.77;0.70;;;;;;;;;;5110812;28;20019;-79
2021/12/25 08:37:52;;;;;;;6.10;0.82;;;;;;;;;;5111386;28;20024;-79
2021/12/25 08:40:18;;;;;;;2.42;0.98;;;;;;;;;;5109631;28;20448;-80
2021/12/25 08:42:52;;;;;;;2.67;0.70;;;;;;;;;;5110823;28;20522;-76
2021/12/25 08:45:41;;;;;;;2.95;0.73;;;;;;;;;;5093402;28;20106;-77
2021/12/25 08:48:13;;;;;;;2.72;0.82;;;;;;;;;;5110011;28;20046;-77
2021/12/25 08:50:39;;;;;;;1.25;0.60;;;;;;;;;;5109244;28;20039;-76
2021/12/25 08:53:04;;;;;;;1.75;0.90;;;;;;;;;;5110696;28;20028;-77
2021/12/25 08:55:30;;;;;;;5.18;0.98;;;;;;;;;;5110646;28;20089;-77
2021/12/25 08:57:55;;;;;;;1.80;0.63;;;;;;;;;;5093674;28;20109;-77
2021/12/25 09:00:21;;;;;;;2.67;0.73;;;;;;;;;;5110995;28;20069;-77
2021/12/25 09:02:47;;;;;;;1.73;0.70;;;;;;;;;;5110419;28;20472;-76
2021/12/25 09:05:12;;;;;;;5.32;1.30;;;;;;;;;;5109437;28;20088;-77
2021/12/25 09:07:38;;;;;;;0.63;0.63;;;;;;;;;;5109211;28;20526;-78
2021/12/25 09:10:04;;;;;;;1.25;0.77;;;;;;;;;;5079816;28;20028;-77
2021/12/25 09:12:32;;;;;;;2.05;0.70;;;;;;;;;;5095126;28;20024;-78
2021/12/25 09:14:58;;;;;;;1.58;0.80;;;;;;;;;;5095708;28;20048;-77
2021/12/25 09:17:23;;;;;;;0.75;0.75;;;;;;;;;;5096429;28;20047;-77
2021/12/25 09:19:49;;;;;;;3.55;0.75;;;;;;;;;;5096266;28;20104;-77
2021/12/25 09:22:14;;;;;;;1.50;0.80;;;;;;;;;;5078608;28;20035;-78
2021/12/25 09:24:40;;;;;;;2.83;0.80;;;;;;;;;;5096656;28;20510;-78
2021/12/25 09:27:06;;;;;;;1.02;0.70;;;;;;;;;;5096195;28;20031;-78
2021/12/25 09:29:32;;;;;;;0.90;0.70;;;;;;;;;;5096447;28;20378;-78
2021/12/25 09:32:00;;;;;;;2.17;0.52;;;;;;;;;;5095282;28;20035;-77
2021/12/25 09:34:26;;;;;;;1.77;0.60;;;;;;;;;;5095773;28;20034;-79
2021/12/25 09:36:51;;;;;;;1.35;0.95;;;;;;;;;;5097896;28;20461;-78
2021/12/25 09:39:17;;;;;;;1.23;0.70;;;;;;;;;;5078890;28;20032;-79
2021/12/25 09:41:43;;;;;;;1.00;0.55;;;;;;;;;;5095343;28;20110;-79
2021/12/25 09:44:08;;;;;;;0.68;0.68;;;;;;;;;;5096323;28;20054;-79
2021/12/25 09:46:34;;;;;;;1.55;0.65;;;;;;;;;;5078234;28;20045;-78
2021/12/25 09:49:00;;;;;;;2.70;0.80;;;;;;;;;;5094944;28;20016;-79
2021/12/25 09:51:26;;;;;;;0.70;0.70;;;;;;;;;;5077753;28;20036;-77
2021/12/25 09:54:12;;;;;;;0.90;0.68;;;;;;;;;;5094492;28;20316;-78
2021/12/25 09:56:39;;;;;;;1.20;0.77;;;;;;;;;;5095109;28;20034;-77
2021/12/25 09:59:06;;;;;;;0.68;0.60;;;;;;;;;;5078816;28;20056;-78
2021/12/25 10:01:35;;;;;;;0.85;0.70;;;;;;;;;;5095385;28;20024;-78
2021/12/25 10:04:01;;;;;;;1.67;1.05;;;;;;;;;;5096028;28;20042;-78
2021/12/25 10:06:32;;;;;;;0.73;0.60;;;;;;;;;;5077679;28;20535;-78
2021/12/25 10:09:00;;;;;;;0.75;0.63;;;;;;;;;;5097699;28;20016;-77
2021/12/25 10:11:27;;;;;;;1.92;0.70;;;;;;;;;;5081012;28;20073;-77
2021/12/25 10:13:54;;;;;;;6.43;0.70;;;;;;;;;;5095961;28;20045;-77
2021/12/25 10:16:28;;;;;;;2.15;0.70;;;;;;;;;;5095615;28;20032;-78
2021/12/25 10:19:10;;;;;;;0.70;0.60;;;;;;;;;;5096670;28;20103;-79
2021/12/25 10:21:36;;;;;;;2.22;0.75;;;;;;;;;;5093786;28;20024;-76
2021/12/25 10:24:16;;;;;;;0.40;0.40;;;;;;;;;;5094675;28;20428;-77
2021/12/25 10:26:43;;;;;;;0.65;0.63;;;;;;;;;;5096249;28;20020;-78
2021/12/25 10:29:21;;;;;;;0.85;0.65;;;;;;;;;;5097004;28;20024;-78
2021/12/25 10:31:48;;;;;;;0.50;0.50;;;;;;;;;;5079833;28;20020;-77
2021/12/25 10:34:21;;;;;;;1.33;0.50;;;;;;;;;;5078630;28;20039;-76
2021/12/25 10:36:46;;;;;;;0.93;0.60;;;;;;;;;;5096227;28;20110;-77
2021/12/25 10:39:23;;;;;;;0.60;0.60;;;;;;;;;;5080202;28;20124;-77
2021/12/25 10:41:53;;;;;;;1.48;0.63;;;;;;;;;;5080552;28;20028;-78
2021/12/25 10:44:25;;;;;;;0.85;0.63;;;;;;;;;;5096987;28;20035;-80
2021/12/25 10:46:52;;;;;;;2.05;0.80;;;;;;;;;;5095899;28;20028;-79
2021/12/25 10:49:18;;;;;;;0.55;0.55;;;;;;;;;;5094492;28;20032;-78
2021/12/25 10:51:44;;;;;;;0.88;0.70;;;;;;;;;;5077363;28;20051;-76
2021/12/25 10:54:12;;;;;;;0.55;0.55;;;;;;;;;;5095062;28;20099;-76
2021/12/25 10:56:40;;;;;;;1.05;0.65;;;;;;;;;;5076357;28;20030;-75
2021/12/25 10:59:12;;;;;;;0.80;0.70;;;;;;;;;;5093030;28;20079;-77
2021/12/25 11:01:42;;;;;;;2.78;0.73;;;;;;;;;;5093720;28;20047;-76
2021/12/25 11:04:28;;;;;;;0.93;0.60;;;;;;;;;;5093558;28;20028;-78
2021/12/25 11:06:55;;;;;;;0.50;0.50;;;;;;;;;;5093339;28;20553;-81
2021/12/25 11:09:20;;;;;;;1.15;0.90;;;;;;;;;;5059355;28;20043;-76
2021/12/25 11:12:15;;;;;;;0.65;0.65;;;;;;;;;;5092996;28;20024;-77
2021/12/25 11:14:41;;;;;;;0.75;0.60;;;;;;;;;;5094162;28;20023;-77
2021/12/25 11:17:25;;;;;;;0.50;0.50;;;;;;;;;;5092705;28;20135;-76
2021/12/25 11:20:00;;;;;;;1.23;0.68;;;;;;;;;;5094415;28;20078;-77
2021/12/25 11:22:44;;;;;;;4.35;0.60;;;;;;;;;;5094275;28;20115;-75
2021/12/25 11:25:09;;;;;;;0.88;0.60;;;;;;;;;;5092970;28;20031;-76
2021/12/25 11:27:36;;;;;;;0.50;0.50;;;;;;;;;;5092650;28;20036;-77
2021/12/25 11:30:02;;;;;;;2.55;0.70;;;;;;;;;;5094372;28;20031;-75
2021/12/25 11:32:27;;;;;;;0.98;0.65;;;;;;;;;;5093516;28;20031;-75
2021/12/25 11:34:53;;;;;;;2.92;0.90;;;;;;;;;;5093684;28;20032;-75
2021/12/25 11:37:18;;;;;;;1.38;0.95;;;;;;;;;;5092510;28;20034;-76
2021/12/25 11:39:44;;;;;;;1.73;0.70;;;;;;;;;;5075926;28;20062;-76
2021/12/25 11:42:11;;;;;;;0.82;0.65;;;;;;;;;;5092967;28;20036;-77
2021/12/25 11:44:50;;;;;;;1.42;0.90;;;;;;;;;;5094145;28;20027;-75
2021/12/25 11:47:31;;;;;;;2.25;0.70;;;;;;;;;;5076165;28;20024;-77
2021/12/25 11:49:59;;;;;;;1.42;0.70;;;;;;;;;;5092603;28;20471;-77
2021/12/25 11:52:30;;;;;;;1.27;0.60;;;;;;;;;;5076554;28;20032;-77
2021/12/25 11:55:13;;;;;;;2.88;0.88;;;;;;;;;;5076194;28;20043;-77
2021/12/25 11:57:51;;;;;;;1.08;0.77;;;;;;;;;;5078013;28;20355;-77
2021/12/25 12:00:39;;;;;;;3.55;0.82;;;;;;;;;;5093168;28;20078;-76
2021/12/25 12:03:05;;;;;;;0.73;0.73;;;;;;;;;;5093621;28;20047;-76
2021/12/25 12:05:36;;;;;;;0.77;0.75;;;;;;;;;;5092590;28;20035;-76
2021/12/25 12:08:04;;;;;;;3.55;0.75;;;;;;;;;;5075674;28;20032;-76
2021/12/25 12:10:45;;;;;;;2.38;0.75;;;;;;;;;;5093947;28;20386;-78
2021/12/25 12:13:28;;;;;;;0.50;0.50;;;;;;;;;;5092620;28;20028;-77
2021/12/25 12:16:02;;;;;;;1.05;0.70;;;;;;;;;;5093055;28;20043;-77
2021/12/25 12:18:30;;;;;;;1.52;0.95;;;;;;;;;;5093706;28;20082;-77
2021/12/25 12:21:08;;;;;;;1.38;0.70;;;;;;;;;;5092264;28;20024;-77
2021/12/25 12:26:13;;;;;;;1.02;0.70;;;;;;;;;;5097490;28;20051;-78
2021/12/25 12:28:53;;;;;;;0.75;0.75;;;;;;;;;;5077348;28;20126;-77
2021/12/25 12:31:39;;;;;;;0.52;0.52;;;;;;;;;;5093147;28;20035;-77
2021/12/25 12:34:33;;;;;;;1.13;0.80;;;;;;;;;;5092631;28;20019;-77
2021/12/25 12:37:14;;;;;;;4.53;1.55;;;;;;;;;;5093247;28;20107;-76
2021/12/25 12:40:05;;;;;;;0.50;0.50;;;;;;;;;;5093558;28;20095;-77
2021/12/25 12:42:49;;;;;;;0.85;0.85;;;;;;;;;;5091940;28;20035;-77
2021/12/25 12:45:31;;;;;;;1.10;0.68;;;;;;;;;;5078516;28;20109;-77
2021/12/25 12:48:29;;;;;;;1.17;0.70;;;;;;;;;;5095950;28;20035;-77
2021/12/25 12:50:57;;;;;;;1.75;0.73;;;;;;;;;;5051962;28;20078;-77
2021/12/25 12:53:24;;;;;;;1.10;0.82;;;;;;;;;;5095927;28;20471;-76
2021/12/25 12:55:52;;;;;;;1.25;0.80;;;;;;;;;;5097544;28;20032;-76
2021/12/25 12:58:20;;;;;;;0.60;0.60;;;;;;;;;;5095228;28;20475;-77
2021/12/25 13:01:00;;;;;;;0.80;0.80;;;;;;;;;;5095683;28;20032;-77
2021/12/25 13:03:27;;;;;;;1.20;0.80;;;;;;;;;;5095450;28;20020;-76
2021/12/25 13:05:55;;;;;;;1.33;0.70;;;;;;;;;;5095305;28;20028;-77
2021/12/25 13:08:24;;;;;;;1.20;0.60;;;;;;;;;;5095894;28;20020;-77
2021/12/25 13:11:01;;;;;;;0.93;0.68;;;;;;;;;;5097942;28;20023;-76
2021/12/25 13:13:36;;;;;;;1.75;0.70;;;;;;;;;;5096973;28;20028;-76
2021/12/25 13:16:05;;;;;;;1.13;0.75;;;;;;;;;;5097144;28;20030;-77
2021/12/25 13:18:33;;;;;;;0.82;0.63;;;;;;;;;;5078849;28;20032;-76
2021/12/25 13:21:00;;;;;;;0.82;0.70;;;;;;;;;;5095844;28;20083;-75
2021/12/25 13:23:34;;;;;;;0.73;0.70;;;;;;;;;;5079421;28;20027;-76
2021/12/25 13:26:06;;;;;;;;;;;;;;;;;;5097202;28;20063;-77
2021/12/25 13:28:35;;;;;;;2.35;0.88;;;;;;;;;;5078540;28;19948;-91
2021/12/25 13:31:22;;;;;;;3.33;1.00;;;;;;;;;;5078356;28;20036;-76
2021/12/25 13:33:50;;;;;;;2.88;1.00;;;;;;;;;;5094734;28;20561;-81
2021/12/25 13:36:19;;;;;;;5.18;1.33;;;;;;;;;;5073823;28;20024;-78
2021/12/25 13:38:54;;;;;;;2.58;1.27;;;;;;;;;;5099339;28;20478;-79
2021/12/25 13:41:41;;;;;;;2.95;1.02;;;;;;;;;;5069161;28;20016;-81
2021/12/25 13:44:21;;;;;;;1.23;0.98;;;;;;;;;;5076917;28;20050;-82
2021/12/25 13:46:56;;;;;;;0.93;0.93;;;;;;;;;;5098590;28;20024;-82
2021/12/25 13:49:26;;;;;;;2.55;1.23;;;;;;;;;;5060492;28;20082;-82
2021/12/25 13:51:52;;;;;;;3.40;1.00;;;;;;;;;;5075163;28;20028;-79
2021/12/25 13:54:19;;;;;;;4.32;1.70;;;;;;;;;;5071499;28;20023;-82
2021/12/25 13:56:49;;;;;;;2.45;1.10;;;;;;;;;;5095756;28;20395;-82
2021/12/25 13:59:15;;;;;;;0.80;0.80;;;;;;;;;;5093335;28;20384;-81
2021/12/25 14:01:41;;;;;;;1.55;1.00;;;;;;;;;;5076022;28;20036;-83
2021/12/25 14:04:11;;;;;;;1.33;1.20;;;;;;;;;;5077805;28;20024;-83
2021/12/25 14:06:37;;;;;;;1.95;1.10;;;;;;;;;;5095954;28;20028;-83
2021/12/25 14:09:04;;;;;;;1.33;1.05;;;;;;;;;;5060723;28;20024;-83
2021/12/25 14:11:29;;;;;;;1.45;1.00;;;;;;;;;;5060670;28;20074;-86
2021/12/25 14:13:55;;;;;;;2.88;1.00;;;;;;;;;;5095566;28;20509;-82
2021/12/25 14:16:21;;;;;;;4.72;1.33;;;;;;;;;;5077672;28;20028;-83
2021/12/25 14:18:47;;;;;;;1.85;1.23;;;;;;;;;;5096069;28;20035;-82
2021/12/25 14:21:23;;;;;;;1.17;1.08;;;;;;;;;;5077629;28;20383;-88
2021/12/25 14:24:00;;;;;;;5.88;1.38;;;;;;;;;;5077252;28;20071;-84
2021/12/25 14:26:26;;;;;;;5.88;1.23;;;;;;;;;;5095412;28;20101;-87
2021/12/25 14:28:52;;;;;;;1.27;0.90;;;;;;;;;;5076601;28;20051;-88
2021/12/25 14:31:17;;;;;;;0.80;0.80;;;;;;;;;;5059681;28;20054;-87
2021/12/25 14:33:58;;;;;;;1.00;0.90;;;;;;;;;;5076637;28;20569;-85
2021/12/25 14:36:26;;;;;;;1.95;1.10;;;;;;;;;;5060416;28;20077;-87
2021/12/25 14:38:52;;;;;;;2.22;1.20;;;;;;;;;;5077050;28;20469;-82
2021/12/25 14:41:27;;;;;;;3.15;1.02;;;;;;;;;;5059816;28;20039;-87
2021/12/25 14:43:52;;;;;;;4.50;1.40;;;;;;;;;;5093916;28;20032;-84
2021/12/25 14:46:20;;;;;;;2.67;1.30;;;;;;;;;;5076584;28;20038;-84
2021/12/25 14:48:45;;;;;;;2.35;1.33;;;;;;;;;;5059664;28;20479;-86
2021/12/25 14:51:14;;;;;;;2.97;1.45;;;;;;;;;;5076722;28;20046;-85
2021/12/25 14:54:01;;;;;;;4.60;1.88;;;;;;;;;;5094547;28;20502;-85
2021/12/25 14:56:30;;;;;;;3.22;2.03;;;;;;;;;;5059881;28;20510;-86
2021/12/25 14:58:58;;;;;;;1.85;1.23;;;;;;;;;;5097774;28;20044;-86
2021/12/25 15:01:27;;;;;;;5.43;1.25;;;;;;;;;;5076643;28;20032;-84
2021/12/25 15:04:18;;;;;;;1.63;1.15;;;;;;;;;;5076271;28;20028;-84
2021/12/25 15:06:49;;;;;;;5.00;1.20;;;;;;;;;;5078352;28;20031;-86
2021/12/25 15:09:28;;;;;;;4.00;1.50;;;;;;;;;;5078177;28;20378;-84
2021/12/25 15:12:12;;;;;;;1.48;1.02;;;;;;;;;;5095569;28;20024;-83
2021/12/25 15:14:41;;;;;;;3.85;1.00;;;;;;;;;;5077114;28;20081;-85
2021/12/25 15:17:09;;;;;;;1.25;1.08;;;;;;;;;;5094355;28;20032;-84
2021/12/25 15:19:39;;;;;;;1.45;1.17;;;;;;;;;;5076014;28;20019;-83
2021/12/25 15:22:09;;;;;;;1.38;1.10;;;;;;;;;;5077026;28;20047;-85
2021/12/25 15:24:35;;;;;;;2.45;1.25;;;;;;;;;;5095243;28;20153;-83
2021/12/25 15:27:04;;;;;;;2.63;1.33;;;;;;;;;;5077201;28;20035;-83
2021/12/25 15:29:39;;;;;;;1.60;1.10;;;;;;;;;;5096704;28;20131;-83
2021/12/25 15:32:14;;;;;;;1.52;1.27;;;;;;;;;;5080804;28;20437;-83
2021/12/25 15:34:54;;;;;;;1.48;1.15;;;;;;;;;;5079294;28;20024;-85
2021/12/25 15:37:28;;;;;;;2.53;1.27;;;;;;;;;;5095451;28;20420;-87
2021/12/25 15:39:56;;;;;;;2.63;1.40;;;;;;;;;;5077098;28;20083;-88
2021/12/25 15:42:23;;;;;;;1.90;1.20;;;;;;;;;;5076380;28;20530;-86
2021/12/25 15:44:48;;;;;;;1.98;1.30;;;;;;;;;;5076980;28;20024;-85
2021/12/25 15:47:17;;;;;;;4.68;1.48;;;;;;;;;;5059007;28;20467;-87
2021/12/25 15:49:43;;;;;;;3.78;1.27;;;;;;;;;;5062345;28;20359;-86
2021/12/25 15:52:08;;;;;;;1.55;1.15;;;;;;;;;;5105686;28;20020;-89
2021/12/25 15:54:38;;;;;;;2.47;1.63;;;;;;;;;;5096820;28;20114;-90
2021/12/25 15:57:07;;;;;;;1.55;1.13;;;;;;;;;;5059424;28;20093;-84
2021/12/25 15:59:36;;;;;;;2.13;1.42;;;;;;;;;;5075018;28;20044;-86
2021/12/25 16:02:02;;;;;;;3.13;1.48;;;;;;;;;;5075705;28;20035;-82
2021/12/25 16:04:29;;;;;;;2.17;1.40;;;;;;;;;;5075340;28;20183;-84
2021/12/25 16:06:55;;;;;;;3.33;1.88;;;;;;;;;;5077019;28;20134;-83
2021/12/25 16:09:20;;;;;;;7.57;1.70;;;;;;;;;;5076439;28;20035;-86
2021/12/25 16:11:46;;;;;;;2.83;1.65;;;;;;;;;;5078534;28;20028;-86
2021/12/25 16:14:11;;;;;;;2.60;1.33;;;;;;;;;;5078304;28;20031;-90
2021/12/25 16:16:37;;;;;;;1.67;1.30;;;;;;;;;;5075508;28;20048;-87
2021/12/25 16:19:02;;;;;;;6.40;1.30;;;;;;;;;;5076126;28;20441;-84
2021/12/25 16:21:28;;;;;;;3.33;1.50;;;;;;;;;;5078867;28;20024;-85
2021/12/25 16:23:55;;;;;;;1.75;1.27;;;;;;;;;;5062402;28;20501;-84
2021/12/25 16:26:20;;;;;;;1.33;1.23;;;;;;;;;;5097467;28;20081;-82
2021/12/25 16:28:46;;;;;;;4.03;1.50;;;;;;;;;;5097569;28;20331;-86
2021/12/25 16:31:14;;;;;;;3.55;1.20;;;;;;;;;;5061773;28;20031;-85
2021/12/25 16:33:40;;;;;;;1.67;1.23;;;;;;;;;;5061003;28;20413;-85
2021/12/25 16:36:07;;;;;;;2.42;1.30;;;;;;;;;;5096404;28;20033;-84
2021/12/25 16:38:33;;;;;;;1.30;1.20;;;;;;;;;;5096075;28;20447;-84
2021/12/25 16:41:00;;;;;;;6.97;1.45;;;;;;;;;;5096385;28;20074;-83
2021/12/25 16:43:25;;;;;;;3.78;1.30;;;;;;;;;;5096533;28;20026;-81
2021/12/25 16:45:51;;;;;;;1.75;1.50;;;;;;;;;;5044430;28;20123;-82
2021/12/25 16:48:16;;;;;;;1.42;1.20;;;;;;;;;;5077894;28;20027;-85
2021/12/25 16:50:42;;;;;;;2.20;1.52;;;;;;;;;;5095901;28;20051;-85
2021/12/25 16:53:08;;;;;;;2.90;1.52;;;;;;;;;;5096192;28;20453;-82
2021/12/25 16:55:36;;;;;;;3.42;1.58;;;;;;;;;;5077506;28;20028;-84
2021/12/25 16:58:02;;;;;;;1.80;1.52;;;;;;;;;;5077253;28;20143;-84
2021/12/25 17:00:29;;;;;;;2.55;1.60;;;;;;;;;;5096023;28;20463;-86
2021/12/25 17:02:56;;;;;;;1.90;1.55;;;;;;;;;;5077658;28;20024;-84
2021/12/25 17:05:23;;;;;;;3.13;1.30;;;;;;;;;;5096324;28;20091;-84
2021/12/25 17:07:48;;;;;;;5.82;1.38;;;;;;;;;;5078276;28;20421;-87
2021/12/25 17:10:14;;;;;;;4.45;1.67;;;;;;;;;;5095933;28;20034;-83
2021/12/25 17:12:42;;;;;;;2.22;1.63;;;;;;;;;;5077668;28;20024;-83
2021/12/25 17:15:12;;;;;;;4.35;1.70;;;;;;;;;;5096432;28;20067;-82
2021/12/25 17:17:37;;;;;;;1.77;1.67;;;;;;;;;;5096002;28;20024;-84
2021/12/25 17:20:04;;;;;;;4.70;1.98;;;;;;;;;;5095863;28;20042;-81
2021/12/25 17:22:29;;;;;;;3.45;1.75;;;;;;;;;;5077456;28;20039;-81
2021/12/25 17:24:55;;;;;;;6.00;1.70;;;;;;;;;;5060689;28;20031;-82
2021/12/25 17:27:21;;;;;;;2.15;1.95;;;;;;;;;;5095605;28;20439;-83
2021/12/25 17:29:47;;;;;;;2.17;1.80;;;;;;;;;;5076593;28;20122;-83
2021/12/25 17:32:13;;;;;;;2.30;1.75;;;;;;;;;;5060708;28;20415;-86
2021/12/25 17:34:38;;;;;;;2.60;1.80;;;;;;;;;;5077325;28;20501;-85
2021/12/25 17:37:04;;;;;;;4.47;1.95;;;;;;;;;;5077388;28;20104;-84
2021/12/25 17:39:29;;;;;;;2.42;1.67;;;;;;;;;;5061675;28;20028;-85
2021/12/25 17:41:59;;;;;;;5.00;1.70;;;;;;;;;;5097834;28;20097;-87
2021/12/25 17:44:25;;;;;;;4.03;1.83;;;;;;;;;;5063943;28;20031;-83
2021/12/25 17:46:51;;;;;;;1.83;1.73;;;;;;;;;;5062173;28;20031;-87
2021/12/25 17:49:17;;;;;;;2.45;1.90;;;;;;;;;;5078717;28;20027;-85
2021/12/25 17:51:43;;;;;;;5.32;1.85;;;;;;;;;;5096101;28;20028;-84
2021/12/25 17:54:08;;;;;;;5.88;2.58;;;;;;;;;;5081851;28;20495;-81
2021/12/25 17:56:34;;;;;;;11.85;3.85;;;;;;;;;;5081516;28;20040;-83
2021/12/25 17:59:00;;;;;;;9.80;4.65;;;;;;;;;;5060919;28;20131;-83
2021/12/25 18:01:25;;;;;;;14.57;8.02;;;;;;;;;;5077824;28;20382;-82
2021/12/25 18:03:51;;;;;;;28.20;11.27;;;;;;;;;;5077183;28;20496;-80
2021/12/25 18:06:17;;;;;;;27.80;15.32;;;;;;;;;;5095594;28;20036;-82
2021/12/25 18:08:42;;;;;;;39.33;19.67;;;;;;;;;;5060950;28;20028;-83
2021/12/25 18:11:09;;;;;;;44.08;23.25;;;;;;;;;;5095514;28;20024;-83
2021/12/25 18:13:35;;;;;;;50.63;26.48;;;;;;;;;;5095509;28;20024;-82
2021/12/25 18:16:00;;;;;;;60.17;30.30;;;;;;;;;;5077339;28;20536;-82
2021/12/25 18:18:26;;;;;;;65.97;32.40;;;;;;;;;;5077100;28;20032;-80
2021/12/25 18:20:53;;;;;;;73.47;36.25;;;;;;;;;;5077193;28;20103;-82
2021/12/25 18:23:19;;;;;;;86.68;40.70;;;;;;;;;;5094886;28;20048;-78
2021/12/25 18:25:47;;;;;;;90.18;42.08;;;;;;;;;;5095109;28;20039;-80
2021/12/25 18:28:13;;;;;;;89.03;44.28;;;;;;;;;;5095356;28;20051;-80
2021/12/25 18:30:39;;;;;;;97.70;47.63;;;;;;;;;;5076921;28;20032;-82
2021/12/25 18:33:05;;;;;;;109.25;53.10;;;;;;;;;;5076757;28;20040;-82
2021/12/25 18:35:31;;;;;;;116.97;55.20;;;;;;;;;;5076701;28;20020;-82
2021/12/25 18:37:56;;;;;;;111.88;58.17;;;;;;;;;;5076480;28;20025;-82
2021/12/25 18:40:22;;;;;;;122.95;60.97;;;;;;;;;;5094964;28;20020;-84
2021/12/25 18:42:48;;;;;;;130.05;70.65;;;;;;;;;;5059863;28;20492;-83
2021/12/25 18:45:14;;;;;;;164.40;82.57;;;;;;;;;;5077059;28;20056;-83
2021/12/25 18:47:40;;;;;;;153.68;82.53;;;;;;;;;;5078477;28;20032;-82
2021/12/25 18:50:09;;;;;;;175.25;98.22;;;;;;;;;;5096587;28;20382;-85
2021/12/25 18:52:36;;;;;;;203.15;123.05;;;;;;;;;;5095165;28;20054;-83
2021/12/25 18:55:05;;;;;;;279.48;168.73;;;;;;;;;;5094506;28;20071;-83
2021/12/25 18:57:31;;;;;;;341.55;212.48;;;;;;;;;;5094521;28;20067;-82
2021/12/25 18:59:56;;;;;;;353.25;239.52;;;;;;;;;;5076811;28;20039;-83
2021/12/25 19:02:22;;;;;;;369.08;253.45;;;;;;;;;;5060890;28;20028;-82
2021/12/25 19:04:49;;;;;;;355.75;245.52;;;;;;;;;;5076606;28;20032;-80
2021/12/25 19:07:15;;;;;;;344.08;238.30;;;;;;;;;;5094478;28;20027;-81
2021/12/25 19:09:40;;;;;;;342.88;234.95;;;;;;;;;;5094426;28;20027;-83
2021/12/25 19:12:07;;;;;;;321.13;223.68;;;;;;;;;;5078256;28;20024;-83
2021/12/25 19:14:32;;;;;;;307.98;223.07;;;;;;;;;;5076018;28;20024;-81
2021/12/25 19:16:58;;;;;;;315.63;218.38;;;;;;;;;;5076139;28;20108;-84
2021/12/25 19:19:23;;;;;;;297.75;211.23;;;;;;;;;;5059861;28;20040;-84
2021/12/25 19:21:49;;;;;;;280.80;197.70;;;;;;;;;;5094842;28;20058;-84
2021/12/25 19:24:19;;;;;;;271.13;185.50;;;;;;;;;;5076024;28;20030;-82
2021/12/25 19:26:48;;;;;;;260.88;179.30;;;;;;;;;;5077520;28;20123;-82
2021/12/25 19:29:14;;;;;;;250.40;171.40;;;;;;;;;;5063243;28;20024;-83
2021/12/25 19:31:40;;;;;;;238.02;162.73;;;;;;;;;;5076372;28;20035;-81
2021/12/25 19:34:05;;;;;;;229.20;162.57;;;;;;;;;;5094455;28;20382;-80
2021/12/25 19:36:31;;;;;;;226.95;155.57;;;;;;;;;;5076557;28;20505;-85
2021/12/25 19:38:56;;;;;;;216.95;150.32;;;;;;;;;;5094919;28;20020;-81
2021/12/25 19:41:22;;;;;;;199.20;140.95;;;;;;;;;;5076384;28;20032;-84
2021/12/25 19:43:47;;;;;;;192.23;131.27;;;;;;;;;;5075990;28;20038;-83
2021/12/25 19:46:12;;;;;;;174.30;122.30;;;;;;;;;;5058734;28;20230;-79
2021/12/25 19:48:38;;;;;;;163.88;115.75;;;;;;;;;;5093823;28;20356;-80
2021/12/25 19:51:08;;;;;;;158.57;108.35;;;;;;;;;;5075475;28;20052;-80
2021/12/25 19:53:34;;;;;;;157.02;107.18;;;;;;;;;;5075263;28;20479;-82
2021/12/25 19:56:00;;;;;;;144.38;101.15;;;;;;;;;;5075714;28;20042;-82
2021/12/25 19:58:31;;;;;;;139.90;95.38;;;;;;;;;;5076726;28;20100;-81
2021/12/25 20:01:04;;;;;;;131.90;89.53;;;;;;;;;;5079274;28;20504;-84
2021/12/25 20:03:30;;;;;;;121.57;81.70;;;;;;;;;;5076877;28;20389;-79
2021/12/25 20:05:56;;;;;;;119.00;79.47;;;;;;;;;;5075533;28;20277;-83
2021/12/25 20:08:21;;;;;;;103.53;72.53;;;;;;;;;;5075601;28;20020;-81
2021/12/25 20:10:47;;;;;;;102.78;70.57;;;;;;;;;;5093649;28;20039;-83
2021/12/25 20:13:22;;;;;;;98.93;65.03;;;;;;;;;;5075304;28;20600;-81
2021/12/25 20:15:48;;;;;;;85.40;58.08;;;;;;;;;;5093353;28;20513;-82
2021/12/25 20:18:14;;;;;;;83.18;55.15;;;;;;;;;;5093762;28;20028;-81
2021/12/25 20:20:40;;;;;;;76.32;49.95;;;;;;;;;;5093419;28;20121;-82
2021/12/25 20:23:05;;;;;;;74.78;47.65;;;;;;;;;;5093309;28;20027;-80
2021/12/25 20:25:32;;;;;;;65.57;44.63;;;;;;;;;;5075131;28;20036;-81
2021/12/25 20:27:57;;;;;;;62.65;43.60;;;;;;;;;;5075547;28;20052;-80
2021/12/25 20:30:27;;;;;;;60.25;41.40;;;;;;;;;;5075908;28;20484;-80
2021/12/25 20:32:53;;;;;;;62.83;42.22;;;;;;;;;;5093515;28;20496;-78
2021/12/25 20:35:20;;;;;;;60.10;39.70;;;;;;;;;;5093131;28;20043;-79
2021/12/25 20:37:46;;;;;;;54.08;36.67;;;;;;;;;;5093149;28;20476;-79
2021/12/25 20:40:16;;;;;;;50.83;34.85;;;;;;;;;;5058566;28;20042;-82
2021/12/25 20:42:43;;;;;;;49.50;34.40;;;;;;;;;;5093538;28;20024;-82
2021/12/25 20:47:52;;;;;;;45.00;32.35;;;;;;;;;;5077673;28;20051;-80
2021/12/25 20:50:18;;;;;;;40.38;27.65;;;;;;;;;;5058289;28;20028;-80
2021/12/25 20:52:43;;;;;;;33.00;22.73;;;;;;;;;;5093142;28;20032;-79
2021/12/25 20:55:09;;;;;;;38.03;25.20;;;;;;;;;;5075233;28;20032;-79
2021/12/25 20:57:34;;;;;;;30.73;22.73;;;;;;;;;;5092908;28;20371;-79
2021/12/25 21:00:00;;;;;;;32.15;22.08;;;;;;;;;;5074897;28;20033;-82
2021/12/25 21:02:26;;;;;;;28.27;20.13;;;;;;;;;;5057911;28;20024;-80
2021/12/25 21:04:53;;;;;;;25.20;19.02;;;;;;;;;;5058592;28;20126;-81
2021/12/25 21:07:18;;;;;;;28.65;19.23;;;;;;;;;;5078125;28;20113;-80
2021/12/25 21:09:44;;;;;;;25.42;18.20;;;;;;;;;;5096465;28;20101;-81
2021/12/25 21:12:09;;;;;;;25.38;17.73;;;;;;;;;;5044723;28;20431;-81
2021/12/25 21:14:36;;;;;;;27.73;16.90;;;;;;;;;;5078520;28;20538;-81
2021/12/25 21:17:02;;;;;;;24.35;16.08;;;;;;;;;;5096873;28;20356;-81
2021/12/25 21:19:28;;;;;;;21.88;15.05;;;;;;;;;;5078475;28;20039;-81
2021/12/25 21:21:54;;;;;;;24.40;15.07;;;;;;;;;;5044822;28;20028;-80
2021/12/25 21:24:19;;;;;;;18.63;13.60;;;;;;;;;;5078127;28;20483;-80
2021/12/25 21:26:45;;;;;;;16.75;12.73;;;;;;;;;;5096520;28;20028;-81
2021/12/25 21:29:11;;;;;;;16.33;11.85;;;;;;;;;;5096603;28;20035;-79
2021/12/25 21:31:36;;;;;;;22.23;12.57;;;;;;;;;;5096347;28;20107;-79
2021/12/25 21:34:02;;;;;;;16.10;11.10;;;;;;;;;;5096264;28;20032;-78
2021/12/25 21:36:28;;;;;;;15.75;10.98;;;;;;;;;;5078189;28;20035;-79
2021/12/25 21:38:55;;;;;;;19.73;10.10;;;;;;;;;;5078139;28;20016;-79
2021/12/25 21:41:22;;;;;;;14.68;9.80;;;;;;;;;;5078174;28;20040;-79
2021/12/25 21:43:48;;;;;;;12.77;8.63;;;;;;;;;;5077945;28;20035;-80
2021/12/25 21:46:14;;;;;;;11.32;8.48;;;;;;;;;;5077819;28;20028;-81
2021/12/25 21:48:42;;;;;;;11.77;8.13;;;;;;;;;;5095776;28;20031;-79
2021/12/25 21:51:09;;;;;;;11.15;7.68;;;;;;;;;;5077624;28;20040;-81
2021/12/25 21:53:34;;;;;;;11.35;7.75;;;;;;;;;;5077073;28;20101;-79
2021/12/25 21:56:00;;;;;;;9.80;7.47;;;;;;;;;;5060199;28;20032;-80
2021/12/25 21:58:25;;;;;;;11.18;7.80;;;;;;;;;;5076646;28;20036;-80
2021/12/25 22:00:51;;;;;;;9.20;7.22;;;;;;;;;;5095387;28;20063;-79
2021/12/25 22:03:17;;;;;;;9.57;7.00;;;;;;;;;;5095650;28;20050;-79
2021/12/25 22:05:44;;;;;;;9.13;6.50;;;;;;;;;;5077450;28;20028;-79
2021/12/25 22:08:11;;;;;;;8.40;7.05;;;;;;;;;;5077117;28;20073;-80
2021/12/25 22:10:38;;;;;;;9.10;6.57;;;;;;;;;;5076731;28;20038;-79
2021/12/25 22:13:04;;;;;;;8.35;6.68;;;;;;;;;;5076464;28;20020;-79
2021/12/25 22:15:30;;;;;;;9.98;6.68;;;;;;;;;;5094822;28;20030;-79
2021/12/25 22:17:57;;;;;;;7.75;5.70;;;;;;;;;;5077677;28;20533;-79
2021/12/25 22:20:26;;;;;;;8.20;5.90;;;;;;;;;;5044324;28;20031;-79
2021/12/25 22:22:52;;;;;;;6.53;5.18;;;;;;;;;;5076672;28;20039;-79
2021/12/25 22:25:19;;;;;;;6.70;5.40;;;;;;;;;;5077317;28;20051;-80
2021/12/25 22:27:44;;;;;;;6.13;4.55;;;;;;;;;;5076712;28;20410;-79
2021/12/25 22:30:16;;;;;;;6.90;5.03;;;;;;;;;;5077126;28;20024;-79
2021/12/25 22:32:42;;;;;;;7.30;4.80;;;;;;;;;;5095277;28;20024;-79
2021/12/25 22:35:08;;;;;;;5.03;3.88;;;;;;;;;;5059677;28;20213;-79
2021/12/25 22:37:34;;;;;;;5.65;4.13;;;;;;;;;;5059543;28;20398;-81
2021/12/25 22:39:59;;;;;;;5.32;3.50;;;;;;;;;;5094781;28;20110;-78
2021/12/25 22:42:25;;;;;;;7.88;3.88;;;;;;;;;;5076381;28;20032;-79
2021/12/25 22:44:51;;;;;;;5.15;3.50;;;;;;;;;;5076245;28;20494;-79